createdAt,value
2023-02-04T00:00:33.326Z,99.92
2023-02-04T00:01:33.094Z,99.92
2023-02-04T00:02:33.097Z,99.92
2023-02-04T00:03:33.041Z,99.99
2023-02-04T00:04:33.033Z,99.99
2023-02-04T00:05:33.064Z,99.99
2023-02-04T00:06:33.000Z,99.99
2023-02-04T00:07:32.984Z,99.99
2023-02-04T00:08:32.969Z,99.99
2023-02-04T00:09:32.956Z,99.99
2023-02-04T00:10:33.345Z,99.99
2023-02-04T00:11:32.939Z,99.99
2023-02-04T00:12:32.918Z,99.99
2023-02-04T00:13:32.920Z,99.99
2023-02-04T00:14:32.905Z,99.99
2023-02-04T00:15:32.892Z,99.99
2023-02-04T00:16:32.864Z,99.99
2023-02-04T00:17:32.890Z,99.99
2023-02-04T00:18:32.840Z,99.99
2023-02-04T00:19:32.831Z,99.99
2023-02-04T00:20:33.073Z,99.99
2023-02-04T00:21:32.821Z,99.99
2023-02-04T00:22:32.797Z,99.99
2023-02-04T00:23:32.778Z,99.99
2023-02-04T00:24:32.770Z,99.99
2023-02-04T00:25:32.752Z,99.99
2023-02-04T00:26:32.742Z,99.99
2023-02-04T00:27:32.743Z,99.99
2023-02-04T00:28:32.718Z,99.99
2023-02-04T00:29:32.734Z,99.99
2023-02-04T00:30:32.985Z,99.99
2023-02-04T00:31:32.819Z,99.99
2023-02-04T00:32:32.672Z,99.99
2023-02-04T00:33:32.675Z,99.99
2023-02-04T00:34:32.634Z,99.99
2023-02-04T00:35:32.620Z,99.99
2023-02-04T00:36:32.611Z,99.99
2023-02-04T00:37:32.602Z,99.99
2023-02-04T00:38:32.590Z,99.99
2023-02-04T00:39:32.581Z,99.99
2023-02-04T00:40:32.898Z,99.99
2023-02-04T00:41:32.556Z,99.99
2023-02-04T00:42:32.532Z,99.99
2023-02-04T00:43:32.525Z,99.99
2023-02-04T00:44:32.513Z,99.99
2023-02-04T00:45:32.587Z,99.99
2023-02-04T00:46:32.490Z,99.99
2023-02-04T00:47:32.468Z,99.99
2023-02-04T00:48:32.462Z,99.99
2023-02-04T00:49:32.474Z,99.99
2023-02-04T00:50:32.763Z,99.99
2023-02-04T00:51:32.421Z,99.99
2023-02-04T00:52:32.420Z,99.99
2023-02-04T00:53:32.399Z,99.99
2023-02-04T00:54:32.378Z,99.99
2023-02-04T00:55:32.369Z,99.99
2023-02-04T00:56:32.358Z,99.99
2023-02-04T00:57:32.350Z,99.99
2023-02-04T00:58:32.333Z,99.99
2023-02-04T00:59:32.321Z,99.99
2023-02-04T01:00:32.750Z,99.99
2023-02-04T01:01:32.296Z,99.99
2023-02-04T01:02:32.373Z,99.99
2023-02-04T01:03:32.269Z,99.99
2023-02-04T01:04:32.253Z,99.99
2023-02-04T01:05:32.276Z,99.99
2023-02-04T01:06:33.267Z,99.99
2023-02-04T01:07:32.357Z,99.99
2023-02-04T01:08:32.221Z,99.99
2023-02-04T01:09:32.198Z,99.99
2023-02-04T01:10:32.622Z,99.99
2023-02-04T01:11:32.166Z,99.99
2023-02-04T01:12:32.149Z,99.99
2023-02-04T01:13:32.153Z,99.99
2023-02-04T01:14:32.128Z,99.99
2023-02-04T01:15:32.153Z,99.99
2023-02-04T01:16:32.211Z,99.99
2023-02-04T01:17:32.095Z,99.99
2023-02-04T01:18:32.087Z,99.99
2023-02-04T01:19:32.069Z,99.99
2023-02-04T01:20:32.246Z,99.99
2023-02-04T01:21:32.069Z,99.99
2023-02-04T01:22:32.028Z,99.99
2023-02-04T01:23:32.025Z,99.99
2023-02-04T01:24:31.994Z,99.99
2023-02-04T01:25:32.001Z,99.99
2023-02-04T01:26:31.980Z,99.99
2023-02-04T01:27:31.967Z,99.99
2023-02-04T01:28:31.945Z,99.99
2023-02-04T01:29:31.960Z,99.99
2023-02-04T01:30:32.247Z,99.99
2023-02-04T01:31:31.940Z,99.99
2023-02-04T01:32:31.894Z,99.99
2023-02-04T01:33:31.884Z,99.99
2023-02-04T01:34:31.880Z,99.99
2023-02-04T01:35:31.863Z,99.99
2023-02-04T01:36:31.859Z,99.99
2023-02-04T01:37:31.865Z,99.99
2023-02-04T01:38:31.841Z,99.99
2023-02-04T01:39:31.812Z,99.99
2023-02-04T01:40:32.225Z,99.99
2023-02-04T01:41:31.783Z,99.99
2023-02-04T01:42:31.776Z,99.99
2023-02-04T01:43:31.771Z,99.99
2023-02-04T01:44:31.751Z,99.99
2023-02-04T01:45:31.757Z,99.99
2023-02-04T01:46:31.718Z,99.99
2023-02-04T01:47:31.708Z,99.99
2023-02-04T01:48:31.698Z,99.99
2023-02-04T01:49:31.686Z,99.99
2023-02-04T01:50:32.085Z,99.99
2023-02-04T01:51:31.648Z,99.99
2023-02-04T01:52:31.636Z,99.99
2023-02-04T01:53:31.646Z,99.99
2023-02-04T01:54:31.615Z,99.99
2023-02-04T01:55:31.600Z,99.99
2023-02-04T01:56:31.589Z,99.99
2023-02-04T01:57:31.598Z,99.99
2023-02-04T01:58:31.564Z,99.99
2023-02-04T01:59:31.544Z,99.99
2023-02-04T02:00:31.968Z,99.99
2023-02-04T02:01:31.581Z,99.99
2023-02-04T02:02:31.546Z,99.99
2023-02-04T02:03:31.496Z,99.99
2023-02-04T02:04:31.492Z,99.99
2023-02-04T02:05:31.473Z,99.99
2023-02-04T02:06:31.453Z,99.99
2023-02-04T02:07:31.450Z,99.99
2023-02-04T02:08:31.428Z,99.99
2023-02-04T02:09:31.438Z,99.99
2023-02-04T02:10:31.730Z,99.99
2023-02-04T02:11:31.395Z,99.99
2023-02-04T02:12:31.376Z,99.99
2023-02-04T02:13:31.380Z,99.99
2023-02-04T02:14:31.370Z,99.99
2023-02-04T02:15:31.350Z,99.99
2023-02-04T02:16:31.381Z,99.99
2023-02-04T02:17:31.314Z,99.99
2023-02-04T02:18:31.304Z,99.99
2023-02-04T02:19:31.296Z,99.99
2023-02-04T02:20:31.669Z,99.99
2023-02-04T02:21:31.268Z,99.99
2023-02-04T02:22:31.256Z,99.99
2023-02-04T02:23:31.238Z,99.99
2023-02-04T02:24:31.228Z,99.99
2023-02-04T02:25:31.237Z,99.99
2023-02-04T02:26:31.206Z,99.99
2023-02-04T02:27:31.196Z,99.99
2023-02-04T02:28:31.190Z,99.99
2023-02-04T02:29:31.166Z,99.99
2023-02-04T02:30:31.604Z,99.99
2023-02-04T02:31:31.229Z,99.99
2023-02-04T02:32:31.127Z,99.99
2023-02-04T02:33:31.118Z,99.99
2023-02-04T02:34:31.122Z,99.99
2023-02-04T02:35:31.101Z,99.99
2023-02-04T02:36:31.082Z,99.99
2023-02-04T02:37:31.072Z,99.99
2023-02-04T02:38:31.048Z,99.99
2023-02-04T02:39:31.044Z,99.99
2023-02-04T02:40:31.427Z,99.99
2023-02-04T02:41:31.045Z,99.99
2023-02-04T02:42:31.004Z,99.99
2023-02-04T02:43:30.994Z,99.99
2023-02-04T02:44:30.981Z,99.99
2023-02-04T02:45:30.969Z,99.99
2023-02-04T02:46:31.013Z,99.99
2023-02-04T02:47:30.945Z,99.99
2023-02-04T02:48:30.925Z,99.99
2023-02-04T02:49:30.906Z,99.99
2023-02-04T02:50:31.337Z,99.99
2023-02-04T02:51:30.886Z,99.99
2023-02-04T02:52:30.880Z,99.99
2023-02-04T02:53:30.854Z,99.99
2023-02-04T02:54:30.851Z,99.99
2023-02-04T02:55:30.827Z,99.99
2023-02-04T02:56:30.823Z,99.99
2023-02-04T02:57:30.825Z,99.99
2023-02-04T02:58:30.798Z,99.99
2023-02-04T02:59:30.783Z,99.99
2023-02-04T03:00:31.257Z,99.99
2023-02-04T03:01:30.831Z,99.99
2023-02-04T03:02:30.850Z,99.99
2023-02-04T03:03:30.735Z,99.99
2023-02-04T03:04:30.718Z,99.99
2023-02-04T03:05:30.709Z,99.99
2023-02-04T03:06:30.696Z,99.99
2023-02-04T03:07:30.685Z,99.99
2023-02-04T03:08:30.662Z,99.99
2023-02-04T03:09:30.657Z,99.99
2023-02-04T03:10:31.088Z,99.99
2023-02-04T03:11:30.624Z,99.99
2023-02-04T03:12:30.622Z,99.99
2023-02-04T03:13:30.633Z,99.99
2023-02-04T03:14:30.601Z,99.99
2023-02-04T03:15:30.705Z,99.99
2023-02-04T03:16:30.569Z,99.99
2023-02-04T03:17:30.557Z,99.99
2023-02-04T03:18:30.568Z,99.99
2023-02-04T03:19:30.533Z,99.99
2023-02-04T03:20:30.946Z,99.99
2023-02-04T03:21:30.516Z,99.99
2023-02-04T03:22:30.522Z,99.99
2023-02-04T03:23:30.492Z,99.99
2023-02-04T03:24:30.489Z,99.99
2023-02-04T03:25:30.463Z,99.99
2023-02-04T03:26:30.442Z,99.99
2023-02-04T03:27:30.434Z,99.99
2023-02-04T03:28:30.428Z,99.99
2023-02-04T03:29:30.445Z,99.99
2023-02-04T03:30:30.765Z,99.99
2023-02-04T03:31:30.593Z,99.99
2023-02-04T03:32:30.376Z,99.99
2023-02-04T03:33:30.364Z,99.99
2023-02-04T03:34:30.354Z,99.99
2023-02-04T03:35:30.333Z,99.99
2023-02-04T03:36:30.319Z,99.99
2023-02-04T03:37:30.317Z,99.99
2023-02-04T03:38:30.311Z,99.99
2023-02-04T03:39:30.286Z,99.99
2023-02-04T03:40:30.732Z,99.99
2023-02-04T03:41:30.266Z,99.99
2023-02-04T03:42:30.254Z,99.99
2023-02-04T03:43:31.588Z,99.99
2023-02-04T03:44:30.222Z,99.99
2023-02-04T03:45:37.534Z,99.99
2023-02-04T03:46:31.331Z,99.99
2023-02-04T03:47:30.180Z,99.99
2023-02-04T03:48:30.181Z,99.99
2023-02-04T03:49:30.162Z,99.99
2023-02-04T03:50:30.500Z,99.99
2023-02-04T03:51:30.129Z,99.99
2023-02-04T03:52:30.123Z,99.99
2023-02-04T03:53:30.120Z,99.99
2023-02-04T03:54:30.112Z,99.99
2023-02-04T03:55:30.091Z,99.99
2023-02-04T03:56:30.071Z,99.99
2023-02-04T03:57:30.067Z,99.99
2023-02-04T03:58:30.053Z,99.99
2023-02-04T03:59:30.054Z,99.99
2023-02-04T04:00:30.349Z,99.99
2023-02-04T04:01:30.099Z,99.99
2023-02-04T04:02:30.040Z,99.99
2023-02-04T04:03:29.991Z,99.99
2023-02-04T04:04:29.990Z,99.99
2023-02-04T04:05:29.959Z,99.99
2023-02-04T04:06:29.955Z,99.99
2023-02-04T04:07:29.937Z,99.99
2023-02-04T04:08:29.938Z,99.99
2023-02-04T04:09:29.922Z,99.99
2023-02-04T04:10:30.188Z,99.99
2023-02-04T04:11:29.890Z,99.99
2023-02-04T04:12:29.882Z,99.99
2023-02-04T04:13:29.883Z,99.99
2023-02-04T04:14:29.859Z,99.99
2023-02-04T04:15:29.844Z,99.99
2023-02-04T04:16:29.828Z,99.99
2023-02-04T04:17:29.847Z,99.99
2023-02-04T04:18:29.797Z,99.99
2023-02-04T04:19:29.788Z,99.99
2023-02-04T04:20:30.121Z,99.99
2023-02-04T04:21:29.774Z,99.99
2023-02-04T04:22:29.756Z,99.99
2023-02-04T04:23:29.742Z,99.99
2023-02-04T04:24:29.738Z,99.99
2023-02-04T04:25:29.719Z,99.99
2023-02-04T04:26:29.699Z,99.99
2023-02-04T04:27:29.691Z,99.99
2023-02-04T04:28:29.682Z,99.99
2023-02-04T04:29:29.661Z,99.99
2023-02-04T04:30:30.163Z,99.99
2023-02-04T04:31:29.790Z,99.99
2023-02-04T04:32:29.629Z,99.99
2023-02-04T04:33:29.640Z,99.99
2023-02-04T04:34:29.604Z,99.99
2023-02-04T04:35:29.579Z,99.99
2023-02-04T04:36:29.576Z,99.99
2023-02-04T04:37:29.579Z,99.99
2023-02-04T04:38:29.575Z,99.99
2023-02-04T04:39:29.553Z,99.99
2023-02-04T04:40:29.753Z,99.99
2023-02-04T04:41:29.544Z,99.99
2023-02-04T04:42:29.553Z,99.99
2023-02-04T04:43:29.493Z,99.99
2023-02-04T04:44:29.470Z,99.99
2023-02-04T04:45:29.475Z,99.99
2023-02-04T04:46:29.478Z,99.99
2023-02-04T04:47:29.445Z,99.99
2023-02-04T04:48:29.425Z,99.99
2023-02-04T04:49:29.436Z,99.99
2023-02-04T04:50:29.737Z,99.99
2023-02-04T04:51:29.380Z,99.99
2023-02-04T04:52:29.364Z,99.99
2023-02-04T04:53:29.383Z,99.99
2023-02-04T04:54:29.339Z,99.99
2023-02-04T04:55:29.327Z,99.99
2023-02-04T04:56:29.315Z,99.99
2023-02-04T04:57:29.311Z,99.99
2023-02-04T04:58:29.291Z,99.99
2023-02-04T04:59:29.283Z,99.99
2023-02-04T05:00:29.470Z,99.99
2023-02-04T05:01:29.251Z,99.99
2023-02-04T05:02:29.249Z,99.99
2023-02-04T05:03:29.231Z,99.99
2023-02-04T05:04:29.247Z,99.99
2023-02-04T05:05:29.234Z,99.99
2023-02-04T05:06:29.197Z,99.99
2023-02-04T05:07:29.180Z,99.99
2023-02-04T05:08:29.164Z,99.99
2023-02-04T05:09:29.155Z,99.99
2023-02-04T05:10:29.269Z,99.99
2023-02-04T05:11:29.139Z,99.99
2023-02-04T05:12:29.128Z,99.99
2023-02-04T05:13:29.102Z,99.99
2023-02-04T05:14:29.098Z,99.99
2023-02-04T05:15:29.075Z,99.99
2023-02-04T05:16:29.268Z,99.99
2023-02-04T05:17:29.054Z,99.99
2023-02-04T05:18:29.040Z,99.99
2023-02-04T05:19:29.024Z,99.99
2023-02-04T05:20:29.163Z,99.99
2023-02-04T05:21:29.032Z,99.99
2023-02-04T05:22:28.989Z,99.99
2023-02-04T05:23:28.981Z,99.99
2023-02-04T05:24:28.973Z,99.99
2023-02-04T05:25:28.969Z,99.99
2023-02-04T05:26:31.023Z,99.99
2023-02-04T05:27:28.940Z,99.99
2023-02-04T05:28:28.917Z,99.99
2023-02-04T05:29:28.897Z,99.99
2023-02-04T05:30:28.959Z,99.99
2023-02-04T05:31:28.917Z,99.99
2023-02-04T05:32:28.866Z,99.99
2023-02-04T05:33:28.855Z,99.99
2023-02-04T05:34:28.836Z,99.99
2023-02-04T05:35:28.829Z,99.99
2023-02-04T05:36:28.815Z,99.99
2023-02-04T05:37:28.828Z,99.99
2023-02-04T05:38:28.788Z,99.99
2023-02-04T05:39:28.779Z,99.99
2023-02-04T05:40:28.804Z,99.99
2023-02-04T05:41:28.744Z,99.99
2023-02-04T05:42:28.759Z,99.99
2023-02-04T05:43:28.729Z,99.99
2023-02-04T05:44:28.730Z,99.99
2023-02-04T05:45:28.736Z,99.99
2023-02-04T05:46:28.690Z,99.99
2023-02-04T05:47:28.672Z,99.99
2023-02-04T05:48:28.658Z,99.99
2023-02-04T05:49:28.654Z,99.99
2023-02-04T05:50:28.648Z,99.99
2023-02-04T05:51:28.628Z,99.99
2023-02-04T05:52:28.616Z,99.99
2023-02-04T05:53:28.620Z,99.99
2023-02-04T05:54:28.586Z,99.99
2023-02-04T05:55:28.580Z,99.99
2023-02-04T05:56:28.563Z,99.99
2023-02-04T05:57:28.555Z,99.99
2023-02-04T05:58:28.531Z,99.99
2023-02-04T05:59:28.518Z,99.99
2023-02-04T06:00:28.511Z,99.99
2023-02-04T06:01:28.510Z,99.99
2023-02-04T06:02:28.488Z,99.99
2023-02-04T06:03:28.549Z,99.99
2023-02-04T06:04:28.516Z,99.99
2023-02-04T06:05:28.459Z,99.99
2023-02-04T06:06:28.438Z,99.99
2023-02-04T06:07:28.428Z,99.99
2023-02-04T06:08:28.409Z,99.99
2023-02-04T06:09:28.422Z,99.99
2023-02-04T06:10:28.419Z,99.99
2023-02-04T06:11:28.369Z,99.99
2023-02-04T06:12:28.360Z,99.99
2023-02-04T06:13:28.343Z,99.99
2023-02-04T06:14:28.333Z,99.99
2023-02-04T06:15:28.332Z,99.99
2023-02-04T06:16:28.380Z,99.99
2023-02-04T06:17:28.309Z,99.99
2023-02-04T06:18:28.296Z,99.99
2023-02-04T06:19:28.273Z,99.99
2023-02-04T06:20:28.266Z,99.99
2023-02-04T06:21:28.259Z,99.99
2023-02-04T06:22:28.231Z,99.99
2023-02-04T06:23:28.224Z,99.99
2023-02-04T06:24:28.212Z,99.99
2023-02-04T06:25:28.262Z,99.99
2023-02-04T06:26:28.195Z,99.99
2023-02-04T06:27:28.184Z,99.99
2023-02-04T06:28:28.163Z,99.99
2023-02-04T06:29:28.152Z,99.99
2023-02-04T06:30:28.230Z,99.99
2023-02-04T06:31:28.286Z,99.99
2023-02-04T06:32:28.114Z,99.99
2023-02-04T06:33:28.099Z,99.99
2023-02-04T06:34:28.084Z,99.99
2023-02-04T06:35:28.079Z,99.99
2023-02-04T06:36:28.060Z,99.99
2023-02-04T06:37:28.063Z,99.99
2023-02-04T06:38:28.034Z,99.99
2023-02-04T06:39:28.029Z,99.99
2023-02-04T06:40:28.015Z,99.99
2023-02-04T06:41:28.026Z,99.99
2023-02-04T06:42:27.996Z,99.99
2023-02-04T06:43:28.106Z,99.99
2023-02-04T06:44:27.962Z,99.99
2023-02-04T06:45:27.946Z,99.99
2023-02-04T06:46:28.041Z,99.99
2023-02-04T06:47:27.931Z,99.99
2023-02-04T06:48:29.626Z,99.99
2023-02-04T06:49:27.919Z,99.99
2023-02-04T06:50:27.900Z,99.99
2023-02-04T06:51:27.885Z,99.99
2023-02-04T06:52:27.870Z,99.99
2023-02-04T06:53:27.864Z,99.99
2023-02-04T06:54:27.842Z,99.99
2023-02-04T06:55:27.838Z,99.99
2023-02-04T06:56:27.813Z,99.99
2023-02-04T06:57:27.831Z,99.99
2023-02-04T06:58:27.790Z,99.99
2023-02-04T06:59:27.770Z,99.99
2023-02-04T07:00:27.767Z,99.99
2023-02-04T07:01:27.799Z,99.99
2023-02-04T07:02:27.825Z,99.99
2023-02-04T07:03:27.729Z,99.99
2023-02-04T07:04:27.707Z,99.99
2023-02-04T07:05:27.695Z,99.99
2023-02-04T07:06:27.691Z,99.99
2023-02-04T07:07:27.669Z,99.99
2023-02-04T07:08:27.655Z,99.99
2023-02-04T07:09:27.649Z,99.99
2023-02-04T07:10:27.633Z,99.99
2023-02-04T07:11:27.619Z,99.99
2023-02-04T07:12:27.613Z,99.99
2023-02-04T07:13:27.622Z,99.99
2023-02-04T07:14:27.592Z,99.99
2023-02-04T07:15:27.750Z,99.99
2023-02-04T07:16:27.565Z,99.99
2023-02-04T07:17:27.560Z,99.99
2023-02-04T07:18:27.614Z,99.99
2023-02-04T07:19:27.521Z,99.99
2023-02-04T07:20:27.515Z,99.99
2023-02-04T07:21:27.503Z,99.99
2023-02-04T07:22:27.489Z,99.99
2023-02-04T07:23:27.480Z,99.99
2023-02-04T07:24:27.466Z,99.99
2023-02-04T07:25:27.458Z,99.99
2023-02-04T07:26:27.434Z,99.99
2023-02-04T07:27:27.447Z,99.99
2023-02-04T07:28:27.431Z,99.99
2023-02-04T07:29:27.422Z,99.99
2023-02-04T07:30:27.384Z,99.99
2023-02-04T07:31:27.555Z,99.99
2023-02-04T07:32:27.367Z,99.99
2023-02-04T07:33:27.346Z,99.99
2023-02-04T07:34:27.343Z,99.99
2023-02-04T07:35:27.324Z,99.99
2023-02-04T07:36:27.393Z,99.99
2023-02-04T07:37:27.302Z,99.99
2023-02-04T07:38:27.279Z,99.99
2023-02-04T07:39:27.278Z,99.99
2023-02-04T07:40:27.262Z,99.99
2023-02-04T07:41:27.252Z,99.99
2023-02-04T07:42:27.247Z,99.99
2023-02-04T07:43:27.223Z,99.99
2023-02-04T07:44:27.218Z,99.99
2023-02-04T07:45:27.226Z,99.99
2023-02-04T07:46:27.269Z,99.99
2023-02-04T07:47:27.162Z,99.99
2023-02-04T07:48:27.153Z,99.99
2023-02-04T07:49:27.155Z,99.99
2023-02-04T07:50:27.121Z,99.99
2023-02-04T07:51:28.038Z,99.99
2023-02-04T07:52:27.107Z,99.99
2023-02-04T07:53:27.095Z,99.99
2023-02-04T07:54:27.103Z,99.99
2023-02-04T07:55:27.077Z,99.99
2023-02-04T07:56:27.046Z,99.99
2023-02-04T07:57:27.043Z,99.99
2023-02-04T07:58:27.023Z,99.99
2023-02-04T07:59:27.011Z,99.99
2023-02-04T08:00:26.995Z,99.99
2023-02-04T08:01:27.052Z,99.99
2023-02-04T08:02:27.057Z,99.99
2023-02-04T08:03:26.957Z,99.99
2023-02-04T08:04:26.945Z,99.99
2023-02-04T08:05:26.940Z,99.99
2023-02-04T08:06:26.931Z,99.99
2023-02-04T08:07:26.915Z,99.99
2023-02-04T08:08:26.898Z,99.99
2023-02-04T08:09:26.884Z,99.99
2023-02-04T08:10:26.886Z,99.99
2023-02-04T08:11:26.858Z,99.99
2023-02-04T08:12:26.853Z,99.99
2023-02-04T08:13:26.836Z,99.99
2023-02-04T08:14:26.833Z,99.99
2023-02-04T08:15:26.814Z,99.99
2023-02-04T08:16:26.873Z,99.99
2023-02-04T08:17:26.806Z,99.99
2023-02-04T08:18:26.779Z,99.99
2023-02-04T08:19:26.764Z,99.99
2023-02-04T08:20:26.766Z,99.99
2023-02-04T08:21:26.726Z,99.99
2023-02-04T08:22:26.719Z,99.99
2023-02-04T08:23:26.714Z,99.99
2023-02-04T08:24:26.696Z,99.99
2023-02-04T08:25:26.681Z,99.99
2023-02-04T08:26:26.666Z,99.99
2023-02-04T08:27:26.660Z,99.99
2023-02-04T08:28:26.646Z,99.99
2023-02-04T08:29:26.633Z,99.99
2023-02-04T08:30:26.686Z,99.99
2023-02-04T08:31:26.693Z,99.99
2023-02-04T08:32:26.588Z,99.99
2023-02-04T08:33:26.599Z,99.99
2023-02-04T08:34:26.570Z,99.99
2023-02-04T08:35:26.557Z,99.99
2023-02-04T08:36:26.542Z,99.99
2023-02-04T08:37:26.523Z,99.99
2023-02-04T08:38:26.524Z,99.99
2023-02-04T08:39:26.510Z,99.99
2023-02-04T08:40:26.549Z,99.99
2023-02-04T08:41:26.486Z,99.99
2023-02-04T08:42:26.461Z,99.99
2023-02-04T08:43:26.452Z,99.99
2023-02-04T08:44:26.441Z,99.99
2023-02-04T08:45:26.430Z,99.99
2023-02-04T08:46:26.443Z,99.99
2023-02-04T08:47:26.412Z,99.99
2023-02-04T08:48:26.404Z,99.99
2023-02-04T08:49:26.422Z,99.99
2023-02-04T08:50:26.376Z,99.99
2023-02-04T08:51:26.374Z,99.99
2023-02-04T08:52:26.355Z,99.99
2023-02-04T08:53:26.362Z,99.99
2023-02-04T08:54:26.373Z,99.99
2023-02-04T08:55:26.323Z,99.99
2023-02-04T08:56:26.326Z,99.99
2023-02-04T08:57:26.300Z,99.99
2023-02-04T08:58:26.287Z,99.99
2023-02-04T08:59:26.288Z,99.99
2023-02-04T09:00:26.263Z,99.99
2023-02-04T09:01:26.259Z,99.99
2023-02-04T09:02:26.351Z,99.99
2023-02-04T09:03:26.245Z,99.99
2023-02-04T09:04:26.227Z,99.99
2023-02-04T09:05:26.249Z,99.99
2023-02-04T09:06:26.192Z,99.99
2023-02-04T09:07:26.202Z,99.99
2023-02-04T09:08:26.183Z,99.99
2023-02-04T09:09:26.485Z,99.99
2023-02-04T09:10:26.150Z,99.99
2023-02-04T09:11:26.135Z,99.99
2023-02-04T09:12:26.123Z,99.99
2023-02-04T09:13:26.112Z,99.99
2023-02-04T09:14:26.098Z,99.99
2023-02-04T09:15:26.102Z,99.99
2023-02-04T09:16:26.067Z,99.99
2023-02-04T09:17:26.065Z,99.99
2023-02-04T09:18:26.056Z,99.99
2023-02-04T09:19:26.056Z,99.99
2023-02-04T09:20:26.025Z,99.99
2023-02-04T09:21:26.042Z,99.99
2023-02-04T09:22:25.996Z,99.99
2023-02-04T09:23:26.002Z,99.99
2023-02-04T09:24:25.975Z,99.99
2023-02-04T09:25:25.959Z,99.99
2023-02-04T09:26:25.954Z,99.99
2023-02-04T09:27:25.947Z,99.99
2023-02-04T09:28:25.919Z,99.99
2023-02-04T09:29:25.927Z,99.99
2023-02-04T09:30:25.907Z,99.99
2023-02-04T09:31:26.047Z,99.99
2023-02-04T09:32:25.867Z,99.99
2023-02-04T09:33:25.858Z,99.99
2023-02-04T09:34:25.853Z,99.99
2023-02-04T09:35:25.833Z,99.99
2023-02-04T09:36:25.823Z,99.99
2023-02-04T09:37:25.847Z,99.99
2023-02-04T09:38:25.809Z,99.99
2023-02-04T09:39:25.789Z,99.99
2023-02-04T09:40:25.776Z,99.99
2023-02-04T09:41:25.763Z,99.99
2023-02-04T09:42:25.745Z,99.99
2023-02-04T09:43:25.770Z,99.99
2023-02-04T09:44:25.734Z,99.99
2023-02-04T09:45:25.719Z,99.99
2023-02-04T09:46:25.699Z,99.99
2023-02-04T09:47:25.699Z,99.99
2023-02-04T09:48:25.685Z,99.99
2023-02-04T09:49:25.661Z,99.99
2023-02-04T09:50:25.654Z,99.99
2023-02-04T09:51:25.632Z,99.99
2023-02-04T09:52:25.627Z,99.99
2023-02-04T09:53:25.623Z,99.99
2023-02-04T09:54:25.593Z,99.99
2023-02-04T09:55:25.569Z,99.99
2023-02-04T09:56:25.566Z,99.99
2023-02-04T09:57:25.553Z,99.99
2023-02-04T09:58:25.530Z,99.99
2023-02-04T09:59:25.527Z,99.99
2023-02-04T10:00:25.499Z,99.99
2023-02-04T10:01:25.691Z,99.99
2023-02-04T10:02:25.474Z,99.99
2023-02-04T10:03:25.476Z,99.99
2023-02-04T10:04:25.457Z,99.99
2023-02-04T10:05:25.440Z,99.99
2023-02-04T10:06:25.426Z,99.99
2023-02-04T10:07:25.423Z,99.99
2023-02-04T10:08:25.406Z,99.99
2023-02-04T10:09:25.410Z,99.99
2023-02-04T10:10:25.375Z,99.99
2023-02-04T10:11:25.354Z,99.99
2023-02-04T10:12:25.348Z,99.99
2023-02-04T10:13:25.322Z,99.99
2023-02-04T10:14:25.326Z,99.37
2023-02-04T10:15:25.300Z,99.16
2023-02-04T10:16:25.354Z,99.16
2023-02-04T10:17:25.269Z,99.37
2023-02-04T10:18:25.268Z,99.57
2023-02-04T10:19:25.246Z,99.63
2023-02-04T10:20:25.257Z,99.63
2023-02-04T10:21:25.218Z,99.43
2023-02-04T10:22:25.205Z,99.43
2023-02-04T10:23:25.202Z,99.43
2023-02-04T10:24:25.192Z,99.73
2023-02-04T10:25:25.182Z,99.99
2023-02-04T10:26:25.183Z,99.99
2023-02-04T10:27:25.149Z,99.94
2023-02-04T10:28:25.133Z,99.58
2023-02-04T10:29:25.127Z,99.48
2023-02-04T10:30:25.160Z,99.17
2023-02-04T10:31:25.236Z,98.50
2023-02-04T10:32:25.085Z,98.50
2023-02-04T10:33:25.085Z,98.30
2023-02-04T10:34:25.055Z,97.53
2023-02-04T10:35:25.049Z,97.53
2023-02-04T10:36:25.046Z,97.28
2023-02-04T10:37:25.022Z,96.86
2023-02-04T10:38:25.010Z,96.20
2023-02-04T10:39:24.989Z,95.06
2023-02-04T10:40:24.999Z,94.03
2023-02-04T10:41:25.005Z,91.96
2023-02-04T10:42:24.956Z,90.41
2023-02-04T10:43:24.948Z,90.31
2023-02-04T10:44:24.928Z,90.72
2023-02-04T10:45:24.924Z,91.24
2023-02-04T10:46:24.994Z,90.72
2023-02-04T10:47:24.900Z,90.83
2023-02-04T10:48:24.876Z,91.24
2023-02-04T10:49:24.873Z,91.82
2023-02-04T10:50:24.862Z,89.79
2023-02-04T10:51:24.846Z,90.00
2023-02-04T10:52:24.829Z,90.52
2023-02-04T10:53:24.828Z,91.55
2023-02-04T10:54:24.811Z,90.45
2023-02-04T10:55:24.792Z,91.28
2023-02-04T10:56:24.786Z,90.35
2023-02-04T10:57:24.805Z,91.17
2023-02-04T10:58:24.752Z,91.07
2023-02-04T10:59:24.741Z,89.04
2023-02-04T11:00:24.752Z,90.70
2023-02-04T11:01:24.727Z,92.97
2023-02-04T11:02:24.708Z,93.80
2023-02-04T11:03:24.711Z,93.24
2023-02-04T11:04:24.690Z,91.17
2023-02-04T11:05:24.662Z,90.97
2023-02-04T11:06:24.658Z,91.75
2023-02-04T11:07:24.639Z,91.40
2023-02-04T11:08:24.647Z,89.09
2023-02-04T11:09:24.630Z,90.08
2023-02-04T11:10:24.619Z,90.66
2023-02-04T11:11:24.588Z,87.98
2023-02-04T11:12:24.577Z,85.91
2023-02-04T11:13:24.589Z,87.01
2023-02-04T11:14:24.563Z,87.63
2023-02-04T11:15:24.551Z,85.30
2023-02-04T11:16:24.561Z,84.88
2023-02-04T11:17:24.518Z,84.36
2023-02-04T11:18:24.508Z,84.16
2023-02-04T11:19:25.306Z,85.95
2023-02-04T11:20:24.481Z,85.54
2023-02-04T11:21:24.477Z,85.85
2023-02-04T11:22:24.461Z,86.78
2023-02-04T11:23:24.443Z,86.36
2023-02-04T11:24:24.424Z,87.50
2023-02-04T11:25:24.411Z,87.71
2023-02-04T11:26:24.418Z,86.47
2023-02-04T11:27:24.402Z,86.26
2023-02-04T11:28:24.387Z,86.88
2023-02-04T11:29:24.395Z,86.20
2023-02-04T11:30:24.352Z,84.23
2023-02-04T11:31:24.495Z,85.83
2023-02-04T11:32:24.324Z,87.07
2023-02-04T11:33:24.331Z,86.55
2023-02-04T11:34:24.309Z,86.76
2023-02-04T11:35:24.293Z,87.17
2023-02-04T11:36:24.272Z,88.10
2023-02-04T11:37:24.264Z,89.65
2023-02-04T11:38:24.245Z,89.13
2023-02-04T11:39:24.240Z,89.50
2023-02-04T11:40:24.224Z,88.51
2023-02-04T11:41:24.218Z,88.71
2023-02-04T11:42:24.195Z,87.37
2023-02-04T11:43:24.196Z,88.10
2023-02-04T11:44:24.167Z,89.65
2023-02-04T11:45:24.178Z,90.16
2023-02-04T11:46:24.206Z,90.16
2023-02-04T11:47:24.141Z,89.34
2023-02-04T11:48:24.123Z,89.71
2023-02-04T11:49:24.099Z,89.81
2023-02-04T11:50:24.093Z,87.68
2023-02-04T11:51:24.081Z,87.27
2023-02-04T11:52:24.072Z,88.10
2023-02-04T11:53:24.058Z,88.51
2023-02-04T11:54:24.037Z,89.03
2023-02-04T11:55:24.032Z,87.89
2023-02-04T11:56:24.021Z,87.48
2023-02-04T11:57:23.999Z,88.10
2023-02-04T11:58:23.996Z,88.61
2023-02-04T11:59:23.982Z,88.31
2023-02-04T12:00:23.969Z,88.10
2023-02-04T12:01:23.981Z,87.37
2023-02-04T12:02:23.996Z,86.55
2023-02-04T12:03:23.944Z,86.55
2023-02-04T12:04:23.922Z,86.44
2023-02-04T12:05:23.930Z,86.34
2023-02-04T12:06:23.888Z,86.76
2023-02-04T12:07:23.880Z,86.65
2023-02-04T12:08:23.855Z,86.86
2023-02-04T12:09:23.868Z,87.48
2023-02-04T12:10:23.832Z,87.13
2023-02-04T12:11:23.818Z,84.89
2023-02-04T12:12:23.810Z,84.38
2023-02-04T12:13:23.797Z,85.31
2023-02-04T12:14:23.783Z,85.41
2023-02-04T12:15:23.782Z,86.03
2023-02-04T12:16:23.805Z,86.24
2023-02-04T12:17:23.764Z,86.55
2023-02-04T12:18:23.743Z,87.17
2023-02-04T12:19:23.727Z,86.65
2023-02-04T12:20:23.709Z,85.52
2023-02-04T12:21:23.708Z,86.13
2023-02-04T12:22:23.701Z,84.07
2023-02-04T12:23:23.663Z,83.18
2023-02-04T12:24:23.656Z,84.17
2023-02-04T12:25:23.638Z,86.34
2023-02-04T12:26:23.633Z,86.86
2023-02-04T12:27:23.618Z,85.83
2023-02-04T12:28:23.605Z,87.89
2023-02-04T12:29:23.593Z,89.19
2023-02-04T12:30:23.592Z,88.57
2023-02-04T12:31:23.728Z,87.23
2023-02-04T12:32:23.573Z,87.95
2023-02-04T12:33:23.552Z,86.51
2023-02-04T12:34:23.526Z,86.92
2023-02-04T12:35:23.511Z,87.23
2023-02-04T12:36:23.514Z,87.54
2023-02-04T12:37:23.517Z,87.44
2023-02-04T12:38:23.495Z,87.54
2023-02-04T12:39:23.468Z,88.43
2023-02-04T12:40:23.444Z,87.50
2023-02-04T12:41:23.442Z,87.19
2023-02-04T12:42:23.428Z,86.78
2023-02-04T12:43:23.421Z,85.13
2023-02-04T12:44:23.407Z,85.44
2023-02-04T12:45:23.378Z,85.33
2023-02-04T12:46:23.458Z,86.36
2023-02-04T12:47:23.361Z,85.64
2023-02-04T12:48:23.471Z,85.68
2023-02-04T12:49:23.361Z,86.30
2023-02-04T12:50:23.333Z,86.92
2023-02-04T12:51:23.316Z,87.99
2023-02-04T12:52:23.304Z,87.89